Time;durP1;ratioP1;P1;durP2;ratioP2;P2;SDS_P1;SDS_P2;PMS_P1;PMS_P2;Temp;Humidity;BMP_temperature;BMP_pressure;BME280_temperature;BME280_humidity;BME280_pressure;Samples;Min_cycle;Max_cycle;Signal;HPM_P1;HPM_P2
2024/03/19 00:00:44;;;;;;;;;26.33;19.67;;;;;-1.31;97.28;100946.88;111489;254;40477;-52
2024/03/19 00:03:37;;;;;;;;;28.00;18.00;;;;;-1.34;97.32;100952.56;110814;242;685714;-54
2024/03/19 00:06:22;;;;;;;;;22.33;16.00;;;;;-1.35;97.37;100951.76;111247;254;38895;-54
2024/03/19 00:09:03;;;;;;;;;21.25;16.50;;;;;-1.36;97.38;100950.61;111332;240;161462;-52
2024/03/19 00:11:47;;;;;;;;;25.50;18.50;;;;;-1.38;97.35;100952.13;111419;254;39524;-53
2024/03/19 00:14:31;;;;;;;;;22.25;18.75;;;;;-1.39;97.38;100950.45;111337;241;161806;-55
2024/03/19 00:17:10;;;;;;;;;20.67;15.00;;;;;-1.39;97.45;100952.02;111480;254;39739;-56
2024/03/19 00:19:48;;;;;;;;;25.33;18.33;;;;;-1.41;97.41;100951.44;111296;241;161845;-53
2024/03/19 00:22:29;;;;;;;;;23.00;18.00;;;;;-1.44;97.48;100952.71;111441;255;38946;-53
2024/03/19 00:25:07;;;;;;;;;25.25;20.00;;;;;-1.45;97.46;100952.42;111423;255;40651;-52
2024/03/19 00:27:45;;;;;;;;;25.00;20.00;;;;;-1.51;97.44;100955.65;111340;241;161819;-55
2024/03/19 00:30:25;;;;;;;;;21.00;16.00;;;;;-1.50;97.47;100955.92;111503;254;39835;-57
2024/03/19 00:33:02;;;;;;;;;23.33;16.00;;;;;-1.53;97.48;100952.63;111390;241;161840;-54
2024/03/19 00:35:51;;;;;;;;;20.00;15.00;;;;;-1.58;97.52;100952.04;111471;254;39020;-54
2024/03/19 00:38:29;;;;;;;;;29.25;24.00;;;;;-1.61;97.63;100952.63;111331;241;161204;-54
2024/03/19 00:41:07;;;;;;;;;20.75;15.00;;;;;-1.64;97.51;100951.73;111439;255;39492;-54
2024/03/19 00:43:40;;;;;;;;;22.00;16.33;;;;;-1.63;97.52;100946.95;111364;241;161977;-54
2024/03/19 00:46:19;;;;;;;;;14.33;13.00;;;;;-1.66;97.44;100949.98;111420;255;39495;-54
2024/03/19 00:49:02;;;;;;;;;22.00;16.00;;;;;-1.73;97.35;100951.14;111459;254;39261;-54
2024/03/19 00:51:43;;;;;;;;;23.00;17.00;;;;;-1.79;97.41;100950.42;111355;241;161972;-54
2024/03/19 00:54:21;;;;;;;;;21.00;17.00;;;;;-1.85;97.51;100952.17;111480;254;39699;-51
2024/03/19 00:57:05;;;;;;;;;23.25;18.00;;;;;-1.87;97.47;100955.65;111327;241;161559;-51
2024/03/19 00:59:46;;;;;;;;;20.75;17.00;;;;;-1.86;97.45;100958.09;111549;254;39003;-54
2024/03/19 01:02:27;;;;;;;;;26.50;18.00;;;;;-1.85;97.47;100956.27;111417;241;161910;-55
2024/03/19 01:05:12;;;;;;;;;25.00;17.50;;;;;-1.88;97.49;100956.11;111446;254;41387;-55
2024/03/19 01:07:53;;;;;;;;;23.00;18.00;;;;;-1.88;97.52;100955.92;111435;241;161755;-53
2024/03/19 01:10:35;;;;;;;;;24.00;17.00;;;;;-1.93;97.47;100955.70;111448;254;38982;-54
2024/03/19 01:13:15;;;;;;;;;21.00;16.00;;;;;-1.92;97.39;100957.06;111485;254;40889;-55
2024/03/19 01:15:55;;;;;;;;;19.00;14.33;;;;;-1.94;97.39;100959.15;111382;241;161451;-55
2024/03/19 01:18:37;;;;;;;;;20.00;15.00;;;;;-1.97;97.47;100960.40;111470;254;40335;-53
2024/03/19 01:21:21;;;;;;;;;25.25;18.50;;;;;-1.97;97.45;100961.58;111314;241;162729;-53
2024/03/19 01:24:00;;;;;;;;;29.25;22.25;;;;;-1.99;97.50;100964.73;111493;254;40756;-54
2024/03/19 01:26:37;;;;;;;;;20.00;16.00;;;;;-2.02;97.46;100964.95;111347;241;161488;-55
2024/03/19 01:29:16;;;;;;;;;18.00;14.00;;;;;-2.03;97.45;100964.84;111488;255;39841;-53
2024/03/19 01:31:56;;;;;;;;;23.00;17.00;;;;;-2.05;97.44;100966.86;111302;241;161184;-53
2024/03/19 01:34:32;;;;;;;;;19.00;15.00;;;;;-2.08;97.49;100965.80;111465;254;39328;-56
2024/03/19 01:37:09;;;;;;;;;18.00;12.75;;;;;-2.10;97.49;100964.39;111502;254;40707;-56
2024/03/19 01:39:49;;;;;;;;;18.50;14.75;;;;;-2.13;97.52;100965.10;111412;241;162079;-56
2024/03/19 01:42:28;;;;;;;;;25.00;18.00;;;;;-2.14;97.60;100965.72;111536;254;39179;-54
2024/03/19 01:45:15;;;;;;;;;22.00;15.00;;;;;-2.10;97.77;100965.46;111315;241;161745;-54
2024/03/19 01:47:50;;;;;;;;;15.33;12.67;;;;;-2.07;97.99;100964.21;111413;254;41733;-52
2024/03/19 01:50:35;;;;;;;;;25.00;17.00;;;;;-2.00;98.15;100968.53;111286;241;161892;-51
2024/03/19 01:53:08;;;;;;;;;25.50;18.50;;;;;-1.95;98.36;100967.85;111466;254;38691;-53
2024/03/19 01:55:48;;;;;;;;;19.00;14.00;;;;;-1.90;98.62;100971.61;111350;241;162113;-53
2024/03/19 01:58:29;;;;;;;;;20.00;16.00;;;;;-1.84;98.76;100972.59;111444;254;40159;-54
2024/03/19 02:01:03;;;;;;;;;20.00;16.00;;;;;-1.76;98.78;100972.80;111399;254;39803;-53
2024/03/19 02:03:44;;;;;;;;;23.25;17.00;;;;;-1.73;98.82;100976.37;111308;241;161571;-53
2024/03/19 02:06:20;;;;;;;;;21.00;16.00;;;;;-1.68;99.00;100979.75;111474;254;40031;-54
2024/03/19 02:09:06;;;;;;;;;20.75;15.75;;;;;-1.66;99.11;100983.46;111368;241;164627;-55
2024/03/19 02:11:44;;;;;;;;;21.00;15.00;;;;;-1.61;98.92;100982.29;111457;254;40526;-55
2024/03/19 02:14:24;;;;;;;;;24.00;18.00;;;;;-1.63;98.91;100981.70;111381;241;161917;-56
2024/03/19 02:17:01;;;;;;;;;30.00;21.33;;;;;-1.58;98.82;100983.19;111480;254;39852;-55
2024/03/19 02:19:38;;;;;;;;;20.00;13.00;;;;;-1.57;98.70;100984.88;111382;241;162015;-55
2024/03/19 02:22:21;;;;;;;;;19.00;13.50;;;;;-1.55;98.63;100982.60;111487;254;39418;-56
2024/03/19 02:25:03;;;;;;;;;23.00;17.50;;;;;-1.50;98.51;100985.46;111443;254;39577;-54
2024/03/19 02:27:46;;;;;;;;;18.00;14.00;;;;;-1.55;98.72;100987.54;111311;241;161238;-53
2024/03/19 02:30:27;;;;;;;;;22.00;18.67;;;;;-1.55;98.72;100990.70;111408;254;40610;-52
2024/03/19 02:33:08;;;;;;;;;20.00;13.33;;;;;-1.50;98.62;100987.92;111336;241;161530;-53
2024/03/19 02:35:50;;;;;;;;;21.25;14.00;;;;;-1.49;98.80;100990.88;111431;254;39190;-54
2024/03/19 02:38:35;;;;;;;;;16.00;12.67;;;;;-1.49;98.95;100994.36;111337;241;161673;-54
2024/03/19 02:41:20;;;;;;;;;19.00;14.00;;;;;-1.43;99.17;100994.14;111430;254;39218;-54
2024/03/19 02:44:04;;;;;;;;;19.00;13.00;;;;;-1.33;99.04;100994.21;111337;241;161766;-51
2024/03/19 02:46:43;;;;;;;;;19.00;14.50;;;;;-1.27;99.02;100991.72;111461;254;40043;-52
2024/03/19 02:49:24;;;;;;;;;19.00;15.00;;;;;-1.26;99.04;100994.64;111495;254;40023;-55
2024/03/19 02:52:05;;;;;;;;;21.00;13.25;;;;;-1.23;98.73;100995.49;111393;241;161917;-56
2024/03/19 02:54:44;;;;;;;;;27.00;18.00;;;;;-1.27;98.67;100995.97;111574;254;40799;-56
2024/03/19 02:57:22;;;;;;;;;18.00;14.00;;;;;-1.32;98.71;100997.90;111377;240;161853;-56
2024/03/19 03:00:08;;;;;;;;;21.00;15.50;;;;;-1.35;98.62;100997.85;111535;254;39207;-54
2024/03/19 03:02:47;;;;;;;;;21.33;16.00;;;;;-1.42;98.50;101002.56;111391;240;161527;-56
2024/03/19 03:05:27;;;;;;;;;16.00;11.00;;;;;-1.51;98.47;101002.48;111485;253;39672;-56
2024/03/19 03:08:07;;;;;;;;;17.00;13.00;;;;;-1.59;98.35;101009.14;111397;253;161072;-54
2024/03/19 03:10:44;;;;;;;;;17.00;13.33;;;;;-1.69;98.37;101011.23;111531;254;40280;-56
2024/03/19 03:13:24;;;;;;;;;11.00;7.00;;;;;-1.76;98.19;101010.80;111558;254;40239;-53
2024/03/19 03:16:04;;;;;;;;;13.50;9.50;;;;;-1.86;98.18;101013.14;111463;241;39347;-53
2024/03/19 03:18:39;;;;;;;;;18.25;12.00;;;;;-1.93;98.19;101014.31;111451;255;41087;-52
2024/03/19 03:21:26;;;;;;;;;15.50;11.00;;;;;-1.96;98.16;101017.88;111307;241;162001;-51
2024/03/19 03:24:04;;;;;;;;;15.75;11.25;;;;;-2.03;98.08;101019.88;111446;255;40305;-54
2024/03/19 03:26:40;;;;;;;;;14.50;10.75;;;;;-2.10;98.16;101020.33;111312;241;161539;-53
2024/03/19 03:29:21;;;;;;;;;10.00;9.00;;;;;-2.15;98.21;101025.75;111455;254;40736;-56
2024/03/19 03:32:01;;;;;;;;;11.00;9.00;;;;;-2.18;98.18;101029.11;111364;241;162464;-56
2024/03/19 03:34:39;;;;;;;;;13.00;9.50;;;;;-2.22;98.32;101030.08;111534;255;40380;-52
2024/03/19 03:37:21;;;;;;;;;20.25;13.25;;;;;-2.22;98.13;101032.88;111427;255;41357;-52
2024/03/19 03:40:13;;;;;;;;;14.00;11.00;;;;;-2.23;98.15;101036.48;111404;241;161447;-53
2024/03/19 03:42:50;;;;;;;;;12.75;9.00;;;;;-2.22;98.14;101038.35;111442;255;41037;-55
2024/03/19 03:45:25;;;;;;;;;16.00;10.00;;;;;-2.19;98.03;101037.66;111370;241;161968;-56
2024/03/19 03:48:08;;;;;;;;;11.00;9.00;;;;;-2.20;97.84;101038.75;111388;255;40987;-51
2024/03/19 03:50:43;;;;;;;;;12.33;9.00;;;;;-2.23;97.91;101043.21;111293;240;161251;-52
2024/03/19 03:53:22;;;;;;;;;12.00;8.00;;;;;-2.27;97.93;101043.80;111443;255;40084;-56
2024/03/19 03:55:59;;;;;;;;;13.50;10.00;;;;;-2.31;97.92;101048.42;111283;240;160986;-56
2024/03/19 03:58:44;;;;;;;;;9.00;6.00;;;;;-2.36;97.97;101047.67;111520;255;40148;-55
2024/03/19 04:01:26;;;;;;;;;12.75;8.00;;;;;-2.42;97.98;101048.35;111472;255;39731;-56
2024/03/19 04:04:05;;;;;;;;;9.75;8.00;;;;;-2.44;97.97;101049.02;111347;241;161607;-56
2024/03/19 04:06:43;;;;;;;;;11.00;8.00;;;;;-2.49;97.99;101048.45;111491;254;40716;-56
2024/03/19 04:09:27;;;;;;;;;16.00;11.00;;;;;-2.48;97.99;101050.11;111327;241;161815;-54
2024/03/19 04:12:07;;;;;;;;;11.00;9.00;;;;;-2.50;97.97;101051.88;111445;254;39602;-54
2024/03/19 04:14:45;;;;;;;;;14.00;11.00;;;;;-2.52;97.87;101053.02;111411;241;161327;-56
2024/03/19 04:17:31;;;;;;;;;12.33;9.67;;;;;-2.54;97.92;101055.78;111542;255;40994;-53
2024/03/19 04:20:11;;;;;;;;;18.00;12.00;;;;;-2.57;97.96;101055.61;111349;255;162087;-54
2024/03/19 04:22:47;;;;;;;;;11.00;9.00;;;;;-2.59;98.08;101054.19;111454;254;40787;-55
2024/03/19 04:25:34;;;;;;;;;15.75;11.00;;;;;-2.61;98.02;101055.68;111482;254;39402;-56
2024/03/19 04:28:09;;;;;;;;;14.00;11.00;;;;;-2.60;98.00;101051.91;111542;254;39144;-52
2024/03/19 04:30:43;;;;;;;;;12.00;9.00;;;;;-2.63;98.04;101057.72;111524;254;39557;-52
2024/03/19 04:33:20;;;;;;;;;14.00;11.00;;;;;-2.62;98.13;101059.83;111331;241;161582;-52
2024/03/19 04:35:58;;;;;;;;;17.50;12.50;;;;;-2.63;98.14;101060.95;111438;256;40210;-52
2024/03/19 04:38:42;;;;;;;;;15.50;12.00;;;;;-2.62;98.07;101058.06;111378;242;161483;-54
2024/03/19 04:41:18;;;;;;;;;13.25;10.25;;;;;-2.64;98.10;101064.67;111416;255;39223;-54
2024/03/19 04:43:59;;;;;;;;;15.00;11.00;;;;;-2.70;98.22;101064.31;111401;240;160907;-52
2024/03/19 04:46:37;;;;;;;;;9.67;8.00;;;;;-2.69;98.08;101068.00;111385;256;39826;-52
2024/03/19 04:49:12;;;;;;;;;8.67;7.33;;;;;-2.70;98.07;101065.76;111502;255;39450;-54
2024/03/19 04:51:54;;;;;;;;;12.00;7.67;;;;;-2.70;98.12;101068.56;111335;241;161342;-53
2024/03/19 04:54:31;;;;;;;;;11.00;8.00;;;;;-2.70;98.21;101068.75;111432;256;39082;-52
2024/03/19 04:57:07;;;;;;;;;15.67;11.33;;;;;-2.67;98.19;101072.08;111129;243;161428;-52
2024/03/19 04:59:49;;;;;;;;;18.33;13.67;;;;;-2.67;98.24;101075.26;111467;255;39973;-52
2024/03/19 05:02:31;;;;;;;;;14.00;10.33;;;;;-2.64;98.43;101082.86;111335;241;161901;-53
2024/03/19 05:05:09;;;;;;;;;12.75;10.00;;;;;-2.61;98.55;101084.97;111470;255;41030;-52
2024/03/19 05:07:50;;;;;;;;;14.00;10.00;;;;;-2.57;98.54;101087.02;111412;255;162033;-54
2024/03/19 05:10:28;;;;;;;;;16.00;12.00;;;;;-2.48;98.52;101088.60;111442;255;39630;-54
2024/03/19 05:13:10;;;;;;;;;14.50;12.00;;;;;-2.41;98.47;101090.98;111446;255;39856;-52
2024/03/19 05:15:52;;;;;;;;;16.33;12.67;;;;;-2.31;98.58;101089.89;111311;240;161828;-52
2024/03/19 05:18:31;;;;;;;;;16.50;13.00;;;;;-2.18;98.61;101089.64;111442;255;40662;-53
2024/03/19 05:21:16;;;;;;;;;12.50;10.00;;;;;-2.08;98.56;101090.80;111328;241;161660;-53
2024/03/19 05:23:58;;;;;;;;;13.67;10.67;;;;;-1.88;98.62;101092.88;111442;255;40600;-52
2024/03/19 05:26:38;;;;;;;;;14.50;11.00;;;;;-1.61;98.73;101090.14;111301;241;162755;-51
2024/03/19 05:29:21;;;;;;;;;19.00;15.00;;;;;-1.46;98.88;101093.11;111306;256;39396;-52
2024/03/19 05:32:05;;;;;;;;;13.67;11.00;;;;;-1.32;98.90;101096.77;111309;255;161511;-52
2024/03/19 05:34:45;;;;;;;;;15.00;10.50;;;;;-1.20;98.89;101096.00;111453;256;40638;-53
2024/03/19 05:37:27;;;;;;;;;11.50;8.50;;;;;-1.11;98.84;101100.94;111458;255;39513;-55
2024/03/19 05:40:01;;;;;;;;;16.00;11.00;;;;;-1.08;98.86;101099.13;111428;241;160594;-52
2024/03/19 05:42:40;;;;;;;;;13.00;9.00;;;;;-1.03;98.88;101099.67;111480;256;38987;-54
2024/03/19 05:45:25;;;;;;;;;16.50;12.00;;;;;-0.96;99.00;101097.65;111400;241;161300;-53
2024/03/19 05:48:02;;;;;;;;;17.00;12.00;;;;;-0.85;99.08;101096.59;111497;255;40249;-56
2024/03/19 05:50:43;;;;;;;;;14.00;11.00;;;;;-0.71;99.10;101100.76;111483;241;161279;-56
2024/03/19 05:53:22;;;;;;;;;15.00;12.50;;;;;-0.53;99.09;101097.63;111608;255;40436;-55
2024/03/19 05:56:02;;;;;;;;;17.33;14.00;;;;;-0.19;99.40;101099.07;111435;241;161804;-55
2024/03/19 05:58:38;;;;;;;;;20.00;13.00;;;;;1.14;99.97;101102.29;111566;255;40239;-51
2024/03/19 06:01:14;;;;;;;;;15.33;12.00;;;;;2.32;99.61;101096.61;111441;255;39999;-52
2024/03/19 06:03:50;;;;;;;;;20.00;15.00;;;;;3.44;99.63;101097.45;111444;241;161087;-52
2024/03/19 06:06:33;;;;;;;;;18.00;14.00;;;;;4.60;98.54;101097.45;111454;256;39297;-53
2024/03/19 06:09:15;;;;;;;;;20.75;16.75;;;;;5.85;97.32;101092.17;111409;241;162151;-52
2024/03/19 06:12:01;;;;;;;;;21.00;16.67;;;;;6.73;96.61;101088.73;111491;255;39591;-53
2024/03/19 06:14:47;;;;;;;;;23.00;18.00;;;;;7.57;95.55;101088.10;111432;241;160890;-55
2024/03/19 06:17:31;;;;;;;;;22.00;17.00;;;;;7.96;95.33;101084.71;111485;255;39677;-53
2024/03/19 06:20:14;;;;;;;;;24.00;17.00;;;;;7.79;94.09;101089.84;111369;241;185770;-53
2024/03/19 06:22:49;;;;;;;;;27.00;20.00;;;;;7.54;93.72;101086.48;111475;255;40635;-56
2024/03/19 06:25:34;;;;;;;;;24.67;20.00;;;;;7.08;92.42;101088.33;111459;255;40483;-57
2024/03/19 06:28:12;;;;;;;;;20.00;16.00;;;;;6.71;91.82;101089.48;111480;255;40007;-52
2024/03/19 06:30:48;;;;;;;;;21.75;17.00;;;;;6.69;91.76;101091.86;111444;255;39597;-52
2024/03/19 06:33:25;;;;;;;;;19.50;15.00;;;;;6.47;91.51;101095.37;111383;241;161595;-55
2024/03/19 06:36:05;;;;;;;;;16.33;11.67;;;;;6.22;90.83;101095.84;111482;255;39775;-56
2024/03/19 06:38:49;;;;;;;;;19.00;15.00;;;;;5.80;90.65;101101.23;111447;241;160824;-52
2024/03/19 06:41:32;;;;;;;;;25.00;19.00;;;;;5.82;90.70;101102.27;111506;255;40127;-52
2024/03/19 06:44:13;;;;;;;;;23.00;17.00;;;;;6.32;91.22;101102.91;111433;241;161702;-54
2024/03/19 06:46:54;;;;;;;;;29.00;19.50;;;;;7.04;90.50;101103.11;111563;255;39799;-54
2024/03/19 06:49:35;;;;;;;;;23.00;19.00;;;;;7.41;89.74;101107.45;111521;255;40308;-52
2024/03/19 06:52:16;;;;;;;;;26.00;18.00;;;;;8.06;88.81;101103.35;111309;255;40128;-52
2024/03/19 06:54:54;;;;;;;;;21.00;17.00;;;;;7.99;87.52;101103.40;111507;255;40360;-56
2024/03/19 06:57:34;;;;;;;;;24.00;19.75;;;;;8.04;87.80;101106.51;111462;241;160980;-52
2024/03/19 07:00:13;;;;;;;;;23.00;19.00;;;;;7.82;87.32;101111.08;111448;255;40889;-51
2024/03/19 07:02:58;;;;;;;;;18.50;14.50;;;;;7.93;87.21;101114.44;111363;241;161168;-54
2024/03/19 07:05:33;;;;;;;;;24.00;19.00;;;;;8.00;86.13;101115.89;111485;255;39431;-53
2024/03/19 07:08:08;;;;;;;;;23.00;19.00;;;;;8.14;85.76;101119.94;111356;241;161095;-55
2024/03/19 07:10:43;;;;;;;;;18.00;13.00;;;;;8.46;85.66;101117.05;111508;255;39539;-56
2024/03/19 07:13:24;;;;;;;;;24.50;18.00;;;;;8.38;85.24;101121.13;111417;255;39833;-52
2024/03/19 07:16:03;;;;;;;;;24.67;19.00;;;;;8.25;84.34;101128.36;111355;243;161371;-52
2024/03/19 07:18:42;;;;;;;;;26.50;20.00;;;;;7.75;84.49;101130.95;111465;255;39319;-56
2024/03/19 07:21:22;;;;;;;;;23.50;19.00;;;;;7.80;84.41;101132.05;111428;241;161234;-55
2024/03/19 07:24:05;;;;;;;;;17.00;14.00;;;;;7.71;84.24;101134.23;111485;255;39758;-52
2024/03/19 07:26:42;;;;;;;;;23.50;17.50;;;;;7.59;84.70;101132.71;111445;241;161381;-53
2024/03/19 07:29:16;;;;;;;;;20.75;16.50;;;;;7.76;84.05;101132.79;111513;255;39866;-52
2024/03/19 07:31:58;;;;;;;;;21.25;17.25;;;;;7.87;83.77;101132.75;111360;241;161955;-52
2024/03/19 07:34:40;;;;;;;;;16.50;13.00;;;;;8.00;83.82;101137.94;111553;255;40292;-52
2024/03/19 07:37:19;;;;;;;;;19.00;15.00;;;;;8.44;84.02;101134.84;111476;256;40647;-51
2024/03/19 07:39:58;;;;;;;;;21.00;15.00;;;;;8.78;83.90;101136.43;111345;241;162195;-52
2024/03/19 07:42:35;;;;;;;;;21.00;17.00;;;;;8.93;82.86;101141.90;111476;255;39418;-55
2024/03/19 07:45:12;;;;;;;;;17.00;13.00;;;;;9.46;82.87;101141.80;111350;241;161159;-56
2024/03/19 07:47:49;;;;;;;;;23.67;16.67;;;;;10.52;82.95;101138.17;111289;255;40455;-57
2024/03/19 07:50:28;;;;;;;;;25.00;18.75;;;;;10.84;81.00;101138.52;111381;241;161317;-55
2024/03/19 07:53:14;;;;;;;;;21.75;18.00;;;;;10.89;79.87;101142.98;111509;255;40345;-55
2024/03/19 07:55:59;;;;;;;;;19.67;16.00;;;;;11.04;79.83;101148.58;111332;241;161404;-55
2024/03/19 07:58:38;;;;;;;;;20.00;16.00;;;;;10.56;77.04;101149.92;111533;255;40030;-52
2024/03/19 08:01:13;;;;;;;;;17.50;14.00;;;;;9.39;77.15;101158.52;111401;255;39513;-53
2024/03/19 08:03:55;;;;;;;;;19.00;15.25;;;;;8.63;77.50;101162.06;110748;241;871887;-52
2024/03/19 08:06:31;;;;;;;;;17.75;13.00;;;;;8.65;78.79;101159.92;111289;256;39463;-52
2024/03/19 08:09:09;;;;;;;;;19.00;16.00;;;;;9.75;80.11;101155.65;111271;243;160930;-52
2024/03/19 08:11:44;;;;;;;;;18.00;13.50;;;;;11.45;79.17;101150.58;111336;255;41069;-52
2024/03/19 08:14:21;;;;;;;;;18.67;14.33;;;;;11.03;76.47;101147.53;111373;241;161555;-53
2024/03/19 08:17:04;;;;;;;;;15.00;12.25;;;;;9.98;76.51;101153.48;111460;254;41113;-54
2024/03/19 08:19:42;;;;;;;;;14.75;12.00;;;;;10.03;77.03;101150.05;111549;254;39501;-55
2024/03/19 08:22:24;;;;;;;;;18.67;14.33;;;;;10.56;78.09;101147.58;111417;255;40363;-55
2024/03/19 08:25:02;;;;;;;;;17.75;13.50;;;;;12.32;78.91;101146.63;111438;255;39917;-52
2024/03/19 08:27:45;;;;;;;;;21.00;16.00;;;;;13.91;78.12;101144.09;111335;240;161583;-52
2024/03/19 08:30:20;;;;;;;;;20.75;15.75;;;;;14.75;76.29;101136.36;111435;254;39319;-53
2024/03/19 08:32:56;;;;;;;;;16.33;14.00;;;;;13.76;72.17;101140.70;111349;241;161292;-52
2024/03/19 08:35:38;;;;;;;;;16.00;11.00;;;;;12.14;70.81;101140.97;111451;255;40265;-51
2024/03/19 08:38:15;;;;;;;;;22.00;18.00;;;;;10.57;70.63;101150.75;111411;241;161404;-53
2024/03/19 08:40:54;;;;;;;;;15.50;13.25;;;;;9.94;72.14;101157.54;111401;255;40890;-52
2024/03/19 08:43:33;;;;;;;;;15.00;10.00;;;;;9.78;72.54;101164.73;111461;256;41458;-53
2024/03/19 08:46:12;;;;;;;;;12.00;9.00;;;;;9.94;72.66;101163.50;111311;241;161127;-51
2024/03/19 08:48:48;;;;;;;;;13.00;11.00;;;;;9.70;72.17;101167.17;111450;255;39835;-51
2024/03/19 08:51:22;;;;;;;;;11.00;9.00;;;;;9.50;70.72;101165.25;111365;240;185640;-51
2024/03/19 08:53:59;;;;;;;;;15.00;10.00;;;;;8.88;70.40;101168.81;111497;255;40585;-52
2024/03/19 08:56:41;;;;;;;;;11.00;9.00;;;;;8.44;70.48;101165.16;111353;240;161828;-55
2024/03/19 08:59:19;;;;;;;;;12.67;9.33;;;;;8.14;71.07;101170.51;111469;255;40201;-51
2024/03/19 09:01:59;;;;;;;;;12.00;9.00;;;;;7.96;71.17;101173.52;111370;241;161006;-51
2024/03/19 09:04:38;;;;;;;;;10.50;8.50;;;;;8.09;71.88;101173.54;111407;255;40943;-51
2024/03/19 09:07:16;;;;;;;;;12.00;10.00;;;;;8.10;71.76;101174.52;111493;255;39032;-55
2024/03/19 09:09:53;;;;;;;;;15.33;11.00;;;;;7.77;71.84;101177.57;111277;241;161140;-51
2024/03/19 09:12:32;;;;;;;;;7.00;5.00;;;;;7.49;71.78;101179.95;111462;255;40508;-54
2024/03/19 09:15:11;;;;;;;;;11.00;9.00;;;;;7.08;71.57;101179.16;111409;241;160596;-56
2024/03/19 09:17:46;;;;;;;;;7.00;5.75;;;;;6.67;72.08;101174.05;111495;255;39163;-54
2024/03/19 09:20:23;;;;;;;;;13.00;8.00;;;;;6.57;72.28;101178.75;111337;241;160784;-54
2024/03/19 09:22:58;;;;;;;;;11.75;7.75;;;;;6.45;72.68;101179.33;111574;255;40343;-54
2024/03/19 09:25:41;;;;;;;;;15.67;10.00;;;;;6.49;72.43;101179.77;111426;255;40171;-54
2024/03/19 09:28:18;;;;;;;;;10.00;9.00;;;;;6.47;72.36;101176.95;111381;241;41496;-53
2024/03/19 09:30:53;;;;;;;;;9.33;8.00;;;;;6.44;72.71;101176.95;111470;255;39736;-52
2024/03/19 09:33:29;;;;;;;;;10.00;8.00;;;;;6.44;72.64;101176.36;111397;241;160400;-52
2024/03/19 09:36:07;;;;;;;;;9.00;8.00;;;;;6.56;73.08;101181.88;111455;255;38213;-51
2024/03/19 09:38:48;;;;;;;;;10.75;7.75;;;;;6.88;73.57;101179.52;111395;241;160414;-51
2024/03/19 09:41:31;;;;;;;;;8.00;6.50;;;;;7.28;73.70;101177.17;111438;255;39197;-52
2024/03/19 09:44:16;;;;;;;;;12.00;8.50;;;;;7.49;73.20;101175.31;111389;241;160685;-55
2024/03/19 09:46:56;;;;;;;;;10.33;8.00;;;;;7.50;72.85;101172.30;111450;255;39746;-54
2024/03/19 09:49:34;;;;;;;;;12.00;9.50;;;;;7.81;72.91;101174.31;111494;255;41907;-56
2024/03/19 09:52:09;;;;;;;;;13.75;10.50;;;;;7.97;72.49;101174.30;111403;255;160645;-56
2024/03/19 09:54:48;;;;;;;;;13.33;10.67;;;;;8.06;72.50;101176.20;111480;255;40300;-52
2024/03/19 09:57:22;;;;;;;;;13.00;9.00;;;;;8.14;72.46;101171.44;111327;241;160933;-54
2024/03/19 10:00:07;;;;;;;;;10.00;8.00;;;;;8.17;72.16;101170.94;111424;255;41012;-52
2024/03/19 10:02:45;;;;;;;;;13.67;11.00;;;;;8.28;72.28;101166.80;111393;241;161378;-53
2024/03/19 10:05:24;;;;;;;;;10.00;8.00;;;;;8.16;72.48;101170.55;111473;255;39561;-53
2024/03/19 10:07:58;;;;;;;;;17.00;12.00;;;;;8.23;71.92;101168.53;111398;255;161178;-55
2024/03/19 10:10:35;;;;;;;;;8.00;7.00;;;;;8.05;71.72;101169.20;111551;255;40147;-56
2024/03/19 10:13:14;;;;;;;;;12.00;10.00;;;;;8.10;71.54;101160.95;111493;255;40334;-54
2024/03/19 10:15:54;;;;;;;;;8.00;7.00;;;;;7.86;71.02;101163.54;111460;241;160991;-54
2024/03/19 10:18:32;;;;;;;;;12.00;9.00;;;;;7.86;71.22;101156.52;111503;256;41520;-52
2024/03/19 10:21:08;;;;;;;;;15.00;10.00;;;;;7.99;71.48;101158.44;111426;241;161983;-56
2024/03/19 10:23:46;;;;;;;;;11.00;9.00;;;;;7.99;71.29;101154.85;111562;255;39956;-55
2024/03/19 10:26:30;;;;;;;;;11.75;9.50;;;;;8.25;71.34;101155.09;111395;241;161006;-56
2024/03/19 10:29:14;;;;;;;;;9.00;6.75;;;;;8.24;71.37;101158.17;111513;255;41171;-56
2024/03/19 10:31:53;;;;;;;;;10.50;8.00;;;;;8.39;71.42;101151.86;111471;255;39319;-57
2024/03/19 10:34:35;;;;;;;;;13.00;10.00;;;;;8.83;71.84;101151.91;111261;255;40895;-55
2024/03/19 10:37:19;;;;;;;;;11.00;8.00;;;;;8.96;70.64;101151.84;111414;255;39375;-55
2024/03/19 10:39:55;;;;;;;;;13.00;10.00;;;;;8.78;69.54;101152.83;111437;241;162022;-55
2024/03/19 10:42:34;;;;;;;;;11.00;8.00;;;;;8.78;69.45;101151.52;111555;256;40015;-53
2024/03/19 10:45:15;;;;;;;;;10.50;8.00;;;;;9.01;69.66;101155.64;111380;241;161116;-53
2024/03/19 10:47:53;;;;;;;;;10.50;8.50;;;;;9.23;69.77;101153.08;111496;255;39185;-54
2024/03/19 10:50:28;;;;;;;;;12.00;10.00;;;;;9.01;69.44;101156.49;111388;241;162082;-55
2024/03/19 10:53:09;;;;;;;;;10.00;8.00;;;;;8.82;69.57;101157.04;111297;256;42187;-53
2024/03/19 10:55:51;;;;;;;;;9.25;7.00;;;;;8.58;69.40;101154.16;111458;255;39399;-54
2024/03/19 10:58:30;;;;;;;;;12.00;10.00;;;;;8.45;69.02;101154.44;111419;255;40973;-56
2024/03/19 11:01:04;;;;;;;;;13.00;9.25;;;;;8.46;69.52;101155.81;111445;255;39509;-56
2024/03/19 11:03:41;;;;;;;;;10.33;8.00;;;;;8.66;69.55;101150.46;111448;241;160569;-52
2024/03/19 11:06:29;;;;;;;;;10.00;9.00;;;;;9.00;69.78;101152.09;111423;255;39572;-52
2024/03/19 11:09:23;;;;;;;;;7.67;6.67;;;;;9.08;69.58;101152.02;111382;241;162118;-53
2024/03/19 11:12:01;;;;;;;;;11.25;10.00;;;;;8.79;69.04;101146.24;111463;255;39374;-51
2024/03/19 11:14:39;;;;;;;;;9.00;7.00;;;;;8.83;68.91;101148.69;111381;241;161051;-51
2024/03/19 11:17:27;;;;;;;;;11.00;9.00;;;;;8.66;68.90;101145.05;111450;255;39703;-51
2024/03/19 11:20:07;;;;;;;;;12.75;9.75;;;;;8.34;68.88;101143.60;111332;241;161120;-53
2024/03/19 11:22:46;;;;;;;;;12.25;9.00;;;;;8.17;68.65;101150.00;111536;255;39263;-51
2024/03/19 11:25:28;;;;;;;;;8.67;6.67;;;;;7.81;68.65;101147.69;111513;255;40388;-51
2024/03/19 11:28:18;;;;;;;;;11.00;8.00;;;;;7.85;68.94;101141.92;111462;241;160602;-52
2024/03/19 11:31:00;;;;;;;;;12.50;11.00;;;;;8.23;69.14;101136.23;111469;255;39853;-51
2024/03/19 11:33:40;;;;;;;;;14.00;11.00;;;;;8.30;68.70;101137.68;111425;241;161019;-51
2024/03/19 11:36:18;;;;;;;;;12.00;10.00;;;;;8.22;68.64;101137.73;111476;255;39948;-51
2024/03/19 11:38:57;;;;;;;;;10.00;8.00;;;;;8.08;68.41;101142.76;111397;255;160525;-51
2024/03/19 11:41:32;;;;;;;;;8.00;6.00;;;;;7.98;68.24;101138.33;111485;255;39792;-51
2024/03/19 11:44:16;;;;;;;;;10.67;8.00;;;;;8.17;68.46;101132.72;111342;255;160610;-51
2024/03/19 11:46:57;;;;;;;;;11.00;7.00;;;;;8.25;68.06;101130.30;111478;255;40461;-51
2024/03/19 11:49:37;;;;;;;;;11.33;9.00;;;;;8.22;67.85;101126.66;111483;255;39846;-55
2024/03/19 11:52:18;;;;;;;;;14.00;11.00;;;;;8.21;67.92;101138.91;111449;255;161224;-55
2024/03/19 11:54:59;;;;;;;;;14.00;10.00;;;;;7.86;68.17;101144.17;111491;255;39673;-55
2024/03/19 11:57:44;;;;;;;;;13.75;10.75;;;;;7.64;68.32;101137.94;111400;241;160435;-54
2024/03/19 12:00:24;;;;;;;;;9.00;7.00;;;;;7.88;68.26;101135.74;111452;255;39768;-53
2024/03/19 12:03:02;;;;;;;;;9.00;6.00;;;;;8.24;68.48;101130.73;111406;241;160298;-53
2024/03/19 12:05:36;;;;;;;;;12.25;9.00;;;;;8.58;68.67;101124.05;111514;255;39529;-54
2024/03/19 12:08:12;;;;;;;;;12.00;10.00;;;;;8.67;68.48;101132.45;111427;241;161266;-54